Time;durP1;ratioP1;P1;durP2;ratioP2;P2;SDS_P1;SDS_P2;PMS_P1;PMS_P2;Temp;Humidity;BMP_temperature;BMP_pressure;BME280_temperature;BME280_humidity;BME280_pressure;Samples;Min_cycle;Max_cycle;Signal;HPM_P1;HPM_P2
2021/10/27 00:00:30;;;;;;;2.00;1.60;;;22.20;45.50;;;;;;5057221;28;20387;-81
2021/10/27 00:02:56;;;;;;;2.60;1.70;;;22.30;46.00;;;;;;5054638;28;20447;-63
2021/10/27 00:05:21;;;;;;;2.27;1.63;;;22.30;45.30;;;;;;5039308;28;20441;-82
2021/10/27 00:07:47;;;;;;;2.25;1.55;;;22.30;45.20;;;;;;5056739;28;20405;-77
2021/10/27 00:10:15;;;;;;;2.10;1.70;;;22.30;45.30;;;;;;5054531;28;20420;-66
2021/10/27 00:12:40;;;;;;;2.17;1.65;;;22.30;45.20;;;;;;5055058;28;20495;-77
2021/10/27 00:15:08;;;;;;;2.27;1.60;;;22.30;45.20;;;;;;5057362;28;20472;-64
2021/10/27 00:17:34;;;;;;;1.70;1.45;;;22.30;45.20;;;;;;5058041;28;20385;-65
2021/10/27 00:20:01;;;;;;;2.03;1.52;;;22.30;45.20;;;;;;5057690;28;20414;-64
2021/10/27 00:22:26;;;;;;;2.10;1.63;;;22.30;45.10;;;;;;5038608;28;20467;-65
2021/10/27 00:24:52;;;;;;;2.17;1.65;;;22.30;45.10;;;;;;5056294;28;20886;-64
2021/10/27 00:27:18;;;;;;;2.80;1.50;;;22.30;45.10;;;;;;5037014;28;20405;-63
2021/10/27 00:29:44;;;;;;;2.20;1.60;;;22.30;45.10;;;;;;5055926;28;20511;-67
2021/10/27 00:32:10;;;;;;;2.20;1.42;;;22.40;45.00;;;;;;5053906;28;20463;-80
2021/10/27 00:34:35;;;;;;;2.33;1.50;;;22.40;45.00;;;;;;5059067;28;20389;-65
2021/10/27 00:37:01;;;;;;;2.42;1.58;;;22.40;44.90;;;;;;5055934;28;20384;-63
2021/10/27 00:39:27;;;;;;;1.92;1.40;;;22.40;44.90;;;;;;5055972;28;20545;-67
2021/10/27 00:41:53;;;;;;;2.80;1.70;;;22.40;44.90;;;;;;5055776;28;20391;-64
2021/10/27 00:44:21;;;;;;;2.25;1.60;;;22.40;44.80;;;;;;5057966;28;20972;-65
2021/10/27 00:46:47;;;;;;;2.70;1.60;;;22.40;44.80;;;;;;5055913;28;20945;-64
2021/10/27 00:49:13;;;;;;;2.35;1.60;;;22.40;44.70;;;;;;5055227;28;20415;-66
2021/10/27 00:51:39;;;;;;;1.70;1.40;;;22.40;44.70;;;;;;5055831;28;20392;-63
2021/10/27 00:54:05;;;;;;;2.07;1.57;;;22.40;44.70;;;;;;5054915;28;20394;-81
2021/10/27 00:56:32;;;;;;;1.90;1.40;;;22.40;44.70;;;;;;5038438;28;20395;-63
2021/10/27 00:58:58;;;;;;;2.20;1.40;;;22.40;44.60;;;;;;5056919;28;20913;-63
2021/10/27 01:01:23;;;;;;;1.97;1.50;;;22.40;44.60;;;;;;5057502;28;20424;-63
2021/10/27 01:03:49;;;;;;;1.67;1.40;;;22.40;44.70;;;;;;5054603;28;20392;-63
2021/10/27 01:06:14;;;;;;;2.00;1.50;;;22.40;44.60;;;;;;5056684;28;20473;-68
2021/10/27 01:08:40;;;;;;;2.17;1.33;;;22.40;44.50;;;;;;5055686;28;20420;-66
2021/10/27 01:11:06;;;;;;;1.83;1.40;;;22.40;44.50;;;;;;5055695;28;20506;-64
2021/10/27 01:13:32;;;;;;;2.65;1.30;;;22.40;44.40;;;;;;5055210;28;21204;-63
2021/10/27 01:15:58;;;;;;;2.10;1.20;;;22.50;44.50;;;;;;5055424;28;20398;-65
2021/10/27 01:18:24;;;;;;;1.75;1.30;;;22.40;44.40;;;;;;5056480;28;20389;-63
2021/10/27 01:20:50;;;;;;;2.10;1.60;;;22.40;44.40;;;;;;5055990;28;20420;-64
2021/10/27 01:23:15;;;;;;;2.25;1.70;;;22.40;44.30;;;;;;5038110;28;20451;-67
2021/10/27 01:25:41;;;;;;;2.13;1.40;;;22.40;44.90;;;;;;5069494;28;20461;-66
2021/10/27 01:28:07;;;;;;;1.67;1.23;;;22.40;44.30;;;;;;5056778;28;20865;-65
2021/10/27 01:30:33;;;;;;;2.10;1.50;;;22.40;44.30;;;;;;5056092;28;20440;-67
2021/10/27 01:32:58;;;;;;;2.05;1.35;;;22.40;44.20;;;;;;5055568;28;21108;-64
2021/10/27 01:35:24;;;;;;;2.00;1.47;;;22.50;44.20;;;;;;5056186;28;21366;-63
2021/10/27 01:37:50;;;;;;;2.10;1.63;;;22.50;44.20;;;;;;5056363;28;20395;-81
2021/10/27 01:40:18;;;;;;;1.98;1.27;;;22.50;44.10;;;;;;5055449;28;20447;-64
2021/10/27 01:42:46;;;;;;;2.90;1.38;;;22.50;44.20;;;;;;5054949;28;20380;-73
2021/10/27 01:45:13;;;;;;;2.15;1.38;;;22.50;44.10;;;;;;5052051;28;20395;-81
2021/10/27 01:47:44;;;;;;;2.20;1.35;;;22.50;44.10;;;;;;5055847;28;20385;-63
2021/10/27 01:50:11;;;;;;;2.03;1.40;;;22.50;44.10;;;;;;5054163;28;20470;-72
2021/10/27 01:52:37;;;;;;;1.90;1.30;;;22.50;44.10;;;;;;5036038;28;20420;-63
2021/10/27 01:55:04;;;;;;;1.70;1.30;;;22.50;44.00;;;;;;5069379;28;21353;-64
2021/10/27 01:57:29;;;;;;;1.88;1.40;;;22.50;44.00;;;;;;5054089;28;20429;-63
2021/10/27 01:59:55;;;;;;;1.95;1.20;;;22.50;44.00;;;;;;5053969;28;20392;-64
2021/10/27 02:02:21;;;;;;;2.07;1.33;;;22.50;44.50;;;;;;5053061;28;20398;-65
2021/10/27 02:04:47;;;;;;;2.10;1.20;;;22.50;43.90;;;;;;5054834;28;20515;-63
2021/10/27 02:07:12;;;;;;;1.90;1.27;;;22.50;43.90;;;;;;5054169;28;20461;-81
2021/10/27 02:09:38;;;;;;;1.75;1.38;;;22.50;43.80;;;;;;5053134;28;20416;-63
2021/10/27 02:12:05;;;;;;;2.03;1.17;;;22.50;43.80;;;;;;5055371;28;20384;-81
2021/10/27 02:14:33;;;;;;;2.40;1.40;;;22.50;43.80;;;;;;5053190;28;20504;-63
2021/10/27 02:16:59;;;;;;;1.60;1.20;;;22.50;43.80;;;;;;5055941;28;20893;-63
2021/10/27 02:19:24;;;;;;;1.58;1.20;;;22.50;43.80;;;;;;5054503;28;20417;-81
2021/10/27 02:21:50;;;;;;;1.50;1.10;;;22.50;43.80;;;;;;5053040;28;20435;-63
2021/10/27 02:24:15;;;;;;;1.80;1.10;;;22.50;43.80;;;;;;5054851;28;20391;-66
2021/10/27 02:26:42;;;;;;;1.95;1.33;;;22.50;43.80;;;;;;5055186;28;20744;-69
2021/10/27 02:29:07;;;;;;;2.30;1.20;;;22.50;43.80;;;;;;5053060;28;20413;-63
2021/10/27 02:31:33;;;;;;;1.50;1.00;;;22.50;43.80;;;;;;5054766;28;20441;-66
2021/10/27 02:33:59;;;;;;;1.50;1.10;;;22.50;43.70;;;;;;5055225;28;20396;-65
2021/10/27 02:36:26;;;;;;;1.90;1.20;;;22.50;43.70;;;;;;5055872;28;20442;-70
2021/10/27 02:38:52;;;;;;;1.65;1.20;;;22.40;43.60;;;;;;5055429;28;20382;-69
2021/10/27 02:41:18;;;;;;;2.03;1.20;;;22.40;43.70;;;;;;5036444;28;20394;-65
2021/10/27 02:43:44;;;;;;;1.60;1.13;;;22.40;43.60;;;;;;5051478;28;20445;-63
2021/10/27 02:46:10;;;;;;;2.10;1.20;;;22.50;43.60;;;;;;5054691;28;20996;-67
2021/10/27 02:48:36;;;;;;;1.90;1.23;;;22.50;43.60;;;;;;5053813;28;20444;-65
2021/10/27 02:51:02;;;;;;;1.83;1.23;;;22.50;43.50;;;;;;5054266;28;20419;-69
2021/10/27 02:53:28;;;;;;;1.80;1.30;;;22.50;43.50;;;;;;5053815;28;20430;-66
2021/10/27 02:55:54;;;;;;;1.67;1.30;;;22.50;44.20;;;;;;5053464;28;20882;-65
2021/10/27 02:58:19;;;;;;;1.55;1.15;;;22.50;43.40;;;;;;5051865;28;20451;-63
2021/10/27 03:00:45;;;;;;;1.75;1.08;;;22.50;43.40;;;;;;5052741;28;20509;-74
2021/10/27 03:03:11;;;;;;;2.03;1.17;;;22.50;43.40;;;;;;5055293;28;20400;-66
2021/10/27 03:05:36;;;;;;;1.90;1.23;;;22.50;43.40;;;;;;5054414;28;20439;-63
2021/10/27 03:08:02;;;;;;;3.17;1.40;;;22.50;43.30;;;;;;5054496;28;20411;-65
2021/10/27 03:10:27;;;;;;;3.20;1.50;;;22.60;43.50;;;;;;5036872;28;20417;-64
2021/10/27 03:12:53;;;;;;;2.85;1.20;;;22.60;44.40;;;;;;5052884;28;20397;-64
2021/10/27 03:15:19;;;;;;;2.63;1.47;;;22.70;44.00;;;;;;5051320;28;20404;-70
2021/10/27 03:17:44;;;;;;;6.95;1.63;;;22.70;44.00;;;;;;5056074;28;20805;-65
2021/10/27 03:20:10;;;;;;;5.00;1.60;;;22.70;45.10;;;;;;5049130;28;20413;-68
2021/10/27 03:22:36;;;;;;;6.00;1.50;;;22.80;45.10;;;;;;5052270;28;20382;-63
2021/10/27 03:25:02;;;;;;;5.40;1.50;;;22.60;44.80;;;;;;5055051;28;20862;-76
2021/10/27 03:27:28;;;;;;;6.32;1.50;;;22.70;45.70;;;;;;5051484;28;20387;-64
2021/10/27 03:29:53;;;;;;;4.63;1.60;;;22.80;45.70;;;;;;5049135;28;20416;-74
2021/10/27 03:32:19;;;;;;;4.47;1.50;;;22.90;45.50;;;;;;5055003;28;20378;-63
2021/10/27 03:34:45;;;;;;;3.13;1.45;;;22.90;45.10;;;;;;5049346;28;20397;-72
2021/10/27 03:37:13;;;;;;;3.67;1.40;;;22.90;44.80;;;;;;5052343;28;20396;-63
2021/10/27 03:39:39;;;;;;;4.38;1.40;;;22.90;44.80;;;;;;5054700;28;20816;-63
2021/10/27 03:42:05;;;;;;;4.27;1.30;;;22.90;45.30;;;;;;5048805;28;20476;-63
2021/10/27 03:44:30;;;;;;;3.25;1.42;;;22.90;45.40;;;;;;5051606;28;20396;-66
2021/10/27 03:46:56;;;;;;;3.00;1.43;;;23.00;44.50;;;;;;5049589;28;20867;-69
2021/10/27 03:49:22;;;;;;;3.50;1.20;;;23.00;44.60;;;;;;5048826;28;20499;-64
2021/10/27 03:51:48;;;;;;;2.27;1.30;;;23.00;44.50;;;;;;5056790;28;20405;-63
2021/10/27 03:54:15;;;;;;;4.43;1.42;;;22.90;44.40;;;;;;5050550;28;20392;-65
2021/10/27 03:56:40;;;;;;;2.35;1.45;;;22.90;44.00;;;;;;5050329;28;20447;-64
2021/10/27 03:59:06;;;;;;;3.57;1.37;;;23.00;44.00;;;;;;5055706;28;21286;-63
2021/10/27 04:01:31;;;;;;;3.25;1.30;;;22.90;44.20;;;;;;5053051;28;20800;-66
2021/10/27 04:03:57;;;;;;;2.85;1.30;;;22.90;44.30;;;;;;5053015;28;20394;-65
2021/10/27 04:06:23;;;;;;;5.10;1.67;;;23.00;44.20;;;;;;5052874;28;20433;-65
2021/10/27 04:08:48;;;;;;;4.95;1.42;;;23.00;44.20;;;;;;5052608;28;20789;-67
2021/10/27 04:11:14;;;;;;;5.00;1.60;;;23.00;44.10;;;;;;5052716;28;20402;-63
2021/10/27 04:13:40;;;;;;;5.93;1.60;;;22.80;44.30;;;;;;5050190;28;20392;-65
2021/10/27 04:16:06;;;;;;;9.52;2.08;;;22.90;44.20;;;;;;5051132;28;20441;-63
2021/10/27 04:18:32;;;;;;;6.70;1.95;;;22.90;44.40;;;;;;5055985;28;20775;-62
2021/10/27 04:20:58;;;;;;;6.63;1.90;;;22.90;44.90;;;;;;5053358;28;20437;-70
2021/10/27 04:23:24;;;;;;;5.30;1.50;;;23.00;43.90;;;;;;5060132;28;20391;-65
2021/10/27 04:25:49;;;;;;;6.40;1.60;;;23.00;43.70;;;;;;5030075;28;20413;-70
2021/10/27 04:28:15;;;;;;;5.57;1.60;;;23.00;42.70;;;;;;5050955;28;20419;-62
2021/10/27 04:30:41;;;;;;;4.60;1.42;;;22.90;42.80;;;;;;5034884;28;20421;-64
2021/10/27 04:33:16;;;;;;;6.55;1.70;;;22.90;43.20;;;;;;5054998;28;20385;-76
2021/10/27 04:35:41;;;;;;;5.22;1.70;;;22.80;43.70;;;;;;5056259;28;20395;-69
2021/10/27 04:38:07;;;;;;;4.17;1.80;;;22.80;44.00;;;;;;5052579;28;20382;-67
2021/10/27 04:40:33;;;;;;;6.68;1.55;;;22.80;44.10;;;;;;5050753;28;20939;-79
2021/10/27 04:42:59;;;;;;;4.95;1.52;;;22.80;43.50;;;;;;5056129;28;20385;-66
2021/10/27 04:45:25;;;;;;;4.30;1.60;;;22.90;44.00;;;;;;5051832;28;20631;-74
2021/10/27 04:47:51;;;;;;;4.25;1.60;;;22.90;43.70;;;;;;5053045;28;21121;-65
2021/10/27 04:50:17;;;;;;;3.90;1.77;;;23.00;43.60;;;;;;5056292;28;20975;-76
2021/10/27 04:52:42;;;;;;;6.07;1.83;;;23.00;43.80;;;;;;5055661;28;20499;-63
2021/10/27 04:55:08;;;;;;;5.33;1.50;;;23.00;44.10;;;;;;5054978;28;20406;-70
2021/10/27 04:57:34;;;;;;;7.68;1.80;;;23.00;43.80;;;;;;5055828;28;20388;-64
2021/10/27 05:00:00;;;;;;;6.73;1.50;;;23.00;44.20;;;;;;5057312;28;20398;-73
2021/10/27 05:02:25;;;;;;;5.78;1.90;;;23.00;44.10;;;;;;5053345;28;20528;-72
2021/10/27 05:04:51;;;;;;;7.70;1.70;;;23.00;43.90;;;;;;5053331;28;20853;-71
2021/10/27 05:07:18;;;;;;;6.07;1.70;;;23.00;43.90;;;;;;5049959;28;20383;-72
2021/10/27 05:09:43;;;;;;;6.00;1.55;;;22.90;43.90;;;;;;5056626;28;20423;-73
2021/10/27 05:12:10;;;;;;;6.57;1.55;;;23.00;43.70;;;;;;5054734;28;20965;-64
2021/10/27 05:14:41;;;;;;;5.07;1.42;;;22.90;43.60;;;;;;5054009;28;20385;-63
2021/10/27 05:17:13;;;;;;;6.20;1.70;;;22.90;43.40;;;;;;5059259;28;20464;-76
2021/10/27 05:19:44;;;;;;;4.68;1.40;;;22.90;43.40;;;;;;5032317;28;20456;-63
2021/10/27 05:22:11;;;;;;;7.43;1.50;;;22.90;43.30;;;;;;5049462;28;20434;-70
2021/10/27 05:24:38;;;;;;;3.97;1.42;;;22.90;43.30;;;;;;5053034;28;20863;-72
2021/10/27 05:27:05;;;;;;;4.47;1.52;;;22.90;43.30;;;;;;5052157;28;20382;-69
2021/10/27 05:29:31;;;;;;;5.30;1.40;;;22.90;43.20;;;;;;5049406;28;20421;-76
2021/10/27 05:31:57;;;;;;;5.13;1.65;;;22.90;43.20;;;;;;5056436;28;21079;-63
2021/10/27 05:34:22;;;;;;;4.28;1.40;;;22.90;43.20;;;;;;5047669;28;20409;-64
2021/10/27 05:36:49;;;;;;;3.53;1.47;;;22.90;43.10;;;;;;5050022;28;20774;-69
2021/10/27 05:39:15;;;;;;;4.47;1.45;;;22.90;43.10;;;;;;5055107;28;20868;-67
2021/10/27 05:41:45;;;;;;;3.80;1.60;;;22.90;43.10;;;;;;5050083;28;20379;-65
2021/10/27 05:44:12;;;;;;;5.78;1.40;;;22.90;43.10;;;;;;5053536;28;20843;-69
2021/10/27 05:46:39;;;;;;;3.75;1.50;;;22.90;43.00;;;;;;5049499;28;20397;-75
2021/10/27 05:49:17;;;;;;;4.50;1.50;;;22.90;43.00;;;;;;5053152;28;20496;-63
2021/10/27 05:51:49;;;;;;;4.43;1.80;;;22.90;43.00;;;;;;5052611;28;20399;-64
2021/10/27 05:56:59;;;;;;;3.65;1.70;;;22.90;43.00;;;;;;5056199;28;20779;-63
2021/10/27 05:59:25;;;;;;;3.03;1.60;;;22.90;43.00;;;;;;5048499;28;20385;-63
2021/10/27 06:01:51;;;;;;;4.20;1.63;;;22.90;42.90;;;;;;5049886;28;20410;-65
2021/10/27 06:04:17;;;;;;;3.35;1.52;;;22.90;42.90;;;;;;5054944;28;20399;-63
2021/10/27 06:06:44;;;;;;;3.13;1.58;;;22.80;42.80;;;;;;5050871;28;20394;-75
2021/10/27 06:09:10;;;;;;;2.28;1.40;;;22.80;42.80;;;;;;5047875;28;21090;-63
2021/10/27 06:11:36;;;;;;;3.97;1.63;;;22.80;42.80;;;;;;5049392;28;20392;-65
2021/10/27 06:14:03;;;;;;;2.88;1.30;;;22.80;42.80;;;;;;5048755;28;20401;-69
2021/10/27 06:16:28;;;;;;;2.90;1.37;;;22.80;42.80;;;;;;5040644;28;20388;-65
2021/10/27 06:18:54;;;;;;;3.00;1.50;;;22.80;42.70;;;;;;5049277;28;20407;-75
2021/10/27 06:21:20;;;;;;;3.20;1.50;;;22.80;42.70;;;;;;5038039;28;20401;-67
2021/10/27 06:23:46;;;;;;;3.00;1.37;;;22.80;42.60;;;;;;5048245;28;20843;-67
2021/10/27 06:26:12;;;;;;;2.60;1.40;;;22.80;42.60;;;;;;5051487;28;20390;-62
2021/10/27 06:28:55;;;;;;;3.20;1.40;;;22.80;42.70;;;;;;5068138;28;20438;-63
2021/10/27 06:31:32;;;;;;;1.85;1.25;;;22.80;42.60;;;;;;5051563;28;20483;-63
2021/10/27 06:34:49;;;;;;;2.40;1.40;;;22.80;42.60;;;;;;5049491;28;20467;-75
2021/10/27 06:47:30;;;;;;;3.10;1.50;;;22.80;42.50;;;;;;5053118;28;20521;-63
2021/10/27 06:49:56;;;;;;;1.70;1.30;;;22.80;42.50;;;;;;5046587;28;20409;-63
2021/10/27 06:52:22;;;;;;;2.10;1.33;;;22.80;42.40;;;;;;5047279;28;20396;-71
2021/10/27 06:54:51;;;;;;;2.25;1.30;;;22.80;42.40;;;;;;5036128;28;20403;-62
2021/10/27 06:57:21;;;;;;;2.58;1.30;;;22.80;42.40;;;;;;5050548;28;20545;-63
2021/10/27 06:59:49;;;;;;;2.17;1.40;;;22.80;42.40;;;;;;5045833;28;20396;-63
2021/10/27 07:15:39;;;;;;;2.67;1.50;;;22.90;42.40;;;;;;5050435;28;20919;-63
2021/10/27 07:18:05;;;;;;;1.73;1.30;;;22.80;42.30;;;;;;5048281;28;20385;-64
2021/10/27 07:20:31;;;;;;;2.03;1.20;;;22.80;42.30;;;;;;5029345;28;20409;-63
2021/10/27 07:23:00;;;;;;;2.92;1.52;;;22.90;42.30;;;;;;5055003;28;20835;-63
2021/10/27 07:25:36;;;;;;;2.70;1.33;;;22.90;42.30;;;;;;5062431;28;20403;-77
2021/10/27 07:28:03;;;;;;;2.55;1.50;;;22.80;42.30;;;;;;5050396;28;20383;-73
2021/10/27 07:30:28;;;;;;;2.10;1.35;;;22.80;42.30;;;;;;5052635;28;20425;-64
2021/10/27 07:32:56;;;;;;;2.00;1.33;;;22.80;42.30;;;;;;5049699;28;20524;-63
2021/10/27 07:40:43;;;;;;;2.10;1.42;;;22.90;42.30;;;;;;5048021;28;20912;-63
2021/10/27 07:43:14;;;;;;;2.05;1.50;;;22.90;42.20;;;;;;5047649;28;20392;-69
2021/10/27 07:45:40;;;;;;;1.95;1.40;;;22.90;42.20;;;;;;5056162;28;20912;-63
2021/10/27 07:48:07;;;;;;;1.90;1.30;;;22.90;42.20;;;;;;5049149;28;20459;-65
2021/10/27 07:50:35;;;;;;;1.92;1.48;;;22.90;42.20;;;;;;5050788;28;20748;-63
2021/10/27 07:53:03;;;;;;;1.80;1.30;;;22.90;42.10;;;;;;5052514;28;20902;-67
2021/10/27 07:55:29;;;;;;;1.65;1.30;;;23.00;42.20;;;;;;5057656;28;20446;-64
2021/10/27 07:57:56;;;;;;;2.10;1.50;;;23.00;42.10;;;;;;5058073;28;20562;-63
2021/10/27 08:00:23;;;;;;;1.77;1.23;;;23.00;42.10;;;;;;5052966;28;20485;-65
2021/10/27 08:02:50;;;;;;;2.00;1.38;;;23.00;42.00;;;;;;5058557;28;20390;-77
2021/10/27 08:05:19;;;;;;;2.03;1.40;;;23.00;42.00;;;;;;5046662;28;20393;-63
2021/10/27 08:07:50;;;;;;;1.60;1.05;;;23.00;41.90;;;;;;5060004;28;20694;-63
2021/10/27 08:10:17;;;;;;;1.88;1.33;;;23.00;41.90;;;;;;5050140;28;20417;-63
2021/10/27 08:12:43;;;;;;;2.00;1.20;;;23.00;42.00;;;;;;5052286;28;20385;-75
2021/10/27 08:15:10;;;;;;;1.67;1.20;;;23.10;41.90;;;;;;5047421;28;20429;-64
2021/10/27 08:17:37;;;;;;;1.88;1.15;;;23.00;41.90;;;;;;5049448;28;20679;-63
2021/10/27 08:20:05;;;;;;;1.73;1.30;;;23.10;42.00;;;;;;5051937;28;21149;-73
2021/10/27 08:22:32;;;;;;;1.90;1.30;;;23.10;42.00;;;;;;5051505;28;20482;-74
2021/10/27 08:24:59;;;;;;;1.45;1.20;;;23.10;41.90;;;;;;5038360;28;20753;-63
2021/10/27 08:27:26;;;;;;;2.28;1.30;;;23.10;42.00;;;;;;5052428;28;20790;-63
2021/10/27 08:29:52;;;;;;;1.75;1.20;;;23.10;42.00;;;;;;5055927;28;20766;-63
2021/10/27 08:32:40;;;;;;;1.98;1.40;;;23.10;41.90;;;;;;5039128;28;20386;-64
2021/10/27 08:35:05;;;;;;;2.10;1.50;;;23.10;41.90;;;;;;5041179;28;20395;-64
2021/10/27 08:37:31;;;;;;;2.00;1.27;;;23.10;41.90;;;;;;5052065;28;20393;-69
2021/10/27 08:39:57;;;;;;;1.40;1.02;;;23.10;41.90;;;;;;5048069;28;20397;-63
2021/10/27 08:42:24;;;;;;;1.63;1.20;;;23.10;41.80;;;;;;5047110;28;20409;-64
2021/10/27 08:44:49;;;;;;;1.60;1.30;;;23.20;41.90;;;;;;5049392;28;20782;-63
2021/10/27 08:47:16;;;;;;;1.50;1.10;;;23.20;41.80;;;;;;5054656;28;20595;-65
2021/10/27 08:49:44;;;;;;;1.77;1.20;;;23.20;41.80;;;;;;5054221;28;20815;-63
2021/10/27 08:52:12;;;;;;;2.05;1.15;;;23.20;41.80;;;;;;5052445;28;20371;-65
2021/10/27 08:54:38;;;;;;;1.70;1.20;;;23.20;41.80;;;;;;5055891;28;20392;-69
2021/10/27 08:57:10;;;;;;;1.63;1.00;;;23.20;41.70;;;;;;5035493;28;20441;-78
2021/10/27 09:05:32;;;;;;;1.73;1.02;;;23.30;41.70;;;;;;5033914;28;20394;-67
2021/10/27 09:08:35;;;;;;;1.50;1.10;;;23.40;41.70;;;;;;5048912;28;20505;-64
2021/10/27 09:14:41;;;;;;;1.80;1.08;;;23.40;41.60;;;;;;5047071;28;20446;-71
2021/10/27 09:35:07;;;;;;;1.50;1.00;;;23.40;41.70;;;;;;5055064;28;20387;-74
2021/10/27 09:43:08;;;;;;;1.73;1.17;;;23.40;41.50;;;;;;5051224;28;20735;-72
2021/10/27 10:05:13;;;;;;;1.50;1.00;;;23.40;41.30;;;;;;5053168;28;20444;-64
2021/10/27 10:07:39;;;;;;;1.73;1.20;;;23.50;41.50;;;;;;5054902;28;20938;-64
2021/10/27 10:10:07;;;;;;;1.77;1.20;;;23.40;41.20;;;;;;5050063;28;20419;-63
2021/10/27 10:12:40;;;;;;;1.65;1.20;;;23.40;41.20;;;;;;5052755;28;20436;-63
2021/10/27 10:15:06;;;;;;;1.42;1.00;;;23.50;41.30;;;;;;5029120;28;20385;-69
2021/10/27 10:17:34;;;;;;;1.30;0.88;;;23.50;41.30;;;;;;5054995;28;20396;-65
2021/10/27 10:20:01;;;;;;;1.67;1.10;;;23.50;41.20;;;;;;5052788;28;20408;-70
2021/10/27 10:22:37;;;;;;;1.50;0.90;;;23.50;41.20;;;;;;5046415;28;20758;-64
2021/10/27 10:25:17;;;;;;;1.70;1.00;;;23.50;41.10;;;;;;5046720;28;20377;-76
2021/10/27 10:27:46;;;;;;;1.50;1.00;;;23.50;41.10;;;;;;5052556;28;20859;-74
2021/10/27 10:30:27;;;;;;;1.20;0.90;;;23.50;41.00;;;;;;5048905;28;20425;-62
2021/10/27 10:33:13;;;;;;;1.23;0.90;;;23.60;41.10;;;;;;5049957;28;20398;-66
2021/10/27 10:35:52;;;;;;;1.40;1.10;;;23.50;41.10;;;;;;5054260;28;20407;-63
2021/10/27 10:38:36;;;;;;;1.77;0.98;;;23.50;41.00;;;;;;5047161;28;20385;-66
2021/10/27 10:41:16;;;;;;;1.80;1.10;;;23.50;41.10;;;;;;5047011;28;20780;-68
2021/10/27 11:02:57;;;;;;;1.30;0.80;;;23.60;40.90;;;;;;5047790;28;20425;-67
2021/10/27 11:47:39;;;;;;;6.80;1.55;;;23.60;40.10;;;;;;5057602;28;20422;-63
2021/10/27 11:50:32;;;;;;;3.20;1.20;;;23.60;39.90;;;;;;5056019;28;20511;-63
2021/10/27 11:53:00;;;;;;;2.28;1.17;;;23.60;39.90;;;;;;5058804;28;20391;-64
2021/10/27 11:55:30;;;;;;;3.03;1.30;;;23.60;40.10;;;;;;5057157;28;20407;-67
2021/10/27 11:57:58;;;;;;;5.53;1.20;;;23.60;40.20;;;;;;5033934;28;20431;-63
2021/10/27 12:00:42;;;;;;;3.20;1.20;;;23.60;40.40;;;;;;5068827;28;20392;-63
2021/10/27 12:03:15;;;;;;;2.85;1.23;;;23.60;40.40;;;;;;5054837;28;20395;-74
2021/10/27 12:11:31;;;;;;;4.38;1.50;;;23.60;40.20;;;;;;5055796;28;20506;-62
2021/10/27 12:14:37;;;;;;;5.70;1.27;;;23.60;40.00;;;;;;5057242;28;20423;-71
2021/10/27 12:19:54;;;;;;;2.17;1.00;;;23.70;40.10;;;;;;5056427;28;20415;-63
2021/10/27 12:22:24;;;;;;;3.08;1.20;;;23.60;40.20;;;;;;5039843;28;20766;-63
2021/10/27 12:25:00;;;;;;;3.45;1.42;;;23.70;40.30;;;;;;5055676;28;20392;-80
2021/10/27 12:29:57;;;;;;;4.10;1.45;;;23.70;40.20;;;;;;5054953;28;20413;-75
2021/10/27 12:32:25;;;;;;;2.67;1.30;;;23.80;40.30;;;;;;5054431;28;20441;-63
2021/10/27 12:35:06;;;;;;;2.38;1.23;;;23.80;40.20;;;;;;5056578;28;20387;-65
2021/10/27 12:40:36;;;;;;;2.63;1.25;;;23.80;40.10;;;;;;5056198;28;20455;-63
2021/10/27 12:43:10;;;;;;;3.47;1.25;;;23.80;40.20;;;;;;5054152;28;20403;-64
2021/10/27 12:45:39;;;;;;;3.15;1.30;;;23.90;40.20;;;;;;5056798;28;20486;-65
2021/10/27 12:48:24;;;;;;;1.90;1.10;;;23.90;40.20;;;;;;5055166;28;20934;-63
2021/10/27 12:50:55;;;;;;;3.00;1.20;;;24.00;40.70;;;;;;5055867;28;20416;-63
2021/10/27 12:53:40;;;;;;;2.72;1.20;;;24.00;40.10;;;;;;5071615;28;20523;-63
2021/10/27 12:56:14;;;;;;;2.40;0.90;;;24.00;40.10;;;;;;5055445;28;20879;-81
2021/10/27 12:58:47;;;;;;;2.17;1.10;;;24.00;40.20;;;;;;5055101;28;20392;-62
2021/10/27 13:01:43;;;;;;;1.50;1.10;;;24.00;40.00;;;;;;5058379;28;20878;-71
2021/10/27 13:12:28;;;;;;;6.75;1.98;;;24.10;40.10;;;;;;5056044;28;20389;-81
2021/10/27 13:17:48;;;;;;;4.93;2.30;;;24.00;40.50;;;;;;5055663;28;21627;-67
2021/10/27 13:20:34;;;;;;;7.57;3.00;;;24.00;40.60;;;;;;5053634;28;20911;-62
2021/10/27 13:23:15;;;;;;;7.95;2.60;;;24.00;40.70;;;;;;5055856;28;20877;-63
2021/10/27 13:31:13;;;;;;;8.82;2.70;;;24.00;41.00;;;;;;5052968;28;20418;-63
2021/10/27 13:33:39;;;;;;;9.07;2.60;;;24.00;41.10;;;;;;5053734;28;20387;-68
2021/10/27 13:36:07;;;;;;;7.60;3.13;;;24.00;41.30;;;;;;5038584;28;20404;-81
2021/10/27 13:38:36;;;;;;;10.20;3.00;;;24.10;41.90;;;;;;5069655;28;20398;-65
2021/10/27 13:41:06;;;;;;;6.78;2.80;;;24.10;41.40;;;;;;5054213;28;20784;-63
2021/10/27 13:46:38;;;;;;;5.07;2.35;;;24.20;42.00;;;;;;5042232;28;20879;-62
2021/10/27 14:06:07;;;;;;;13.07;2.72;;;24.50;42.30;;;;;;5053480;28;20441;-63
2021/10/27 14:11:16;;;;;;;16.38;2.85;;;24.40;41.90;;;;;;5051502;28;20405;-63
2021/10/27 14:16:32;;;;;;;8.35;2.70;;;24.40;42.70;;;;;;5053382;28;20462;-75
2021/10/27 15:21:48;;;;;;;9.30;2.13;;;26.70;42.60;;;;;;5047694;28;20424;-63
2021/10/27 15:35:18;;;;;;;4.97;2.40;;;26.80;42.20;;;;;;5052252;28;20390;-62
2021/10/27 15:40:47;;;;;;;6.80;2.55;;;26.70;42.70;;;;;;5021032;28;20824;-74
2021/10/27 15:50:56;;;;;;;5.55;2.90;;;26.50;43.00;;;;;;5032478;28;20856;-78
2021/10/27 15:53:22;;;;;;;6.03;2.85;;;26.40;42.50;;;;;;5052625;28;20415;-62
2021/10/27 15:55:48;;;;;;;6.35;3.53;;;26.40;42.60;;;;;;5051937;28;20397;-66
2021/10/27 15:58:14;;;;;;;5.10;3.30;;;26.30;42.20;;;;;;5051046;28;20389;-74
2021/10/27 16:00:41;;;;;;;5.40;3.20;;;26.30;42.10;;;;;;5050757;28;20435;-62
2021/10/27 16:03:09;;;;;;;5.82;3.20;;;26.30;42.10;;;;;;5030154;28;20403;-68
2021/10/27 16:05:41;;;;;;;5.47;3.45;;;26.20;42.10;;;;;;5048557;28;20911;-78
2021/10/27 16:08:08;;;;;;;5.03;3.58;;;26.20;42.20;;;;;;5034445;28;20405;-75
2021/10/27 16:10:35;;;;;;;6.83;3.30;;;26.10;42.60;;;;;;5053652;28;20839;-63
2021/10/27 16:13:02;;;;;;;5.22;3.10;;;26.10;42.10;;;;;;5033600;28;20412;-77
2021/10/27 16:15:37;;;;;;;6.43;3.10;;;26.00;42.20;;;;;;5053078;28;20475;-63
2021/10/27 16:18:11;;;;;;;6.32;3.30;;;26.00;42.10;;;;;;5070125;28;20425;-78
2021/10/27 16:20:40;;;;;;;6.63;3.22;;;26.00;43.00;;;;;;5055831;28;20495;-64
2021/10/27 16:23:08;;;;;;;5.37;3.57;;;25.90;42.60;;;;;;5038080;28;20521;-78
2021/10/27 16:25:36;;;;;;;6.05;3.40;;;25.90;43.10;;;;;;5041960;28;20894;-76
2021/10/27 16:28:03;;;;;;;7.07;3.30;;;25.90;43.10;;;;;;5053309;28;21182;-78
2021/10/27 16:30:30;;;;;;;7.63;4.18;;;25.90;43.00;;;;;;5055606;28;20419;-78
2021/10/27 16:32:57;;;;;;;6.80;3.92;;;25.90;42.80;;;;;;5054519;28;20874;-65
2021/10/27 16:35:24;;;;;;;8.70;4.22;;;25.80;42.80;;;;;;5030593;28;20441;-77
2021/10/27 16:37:50;;;;;;;9.82;4.43;;;25.80;43.60;;;;;;5056752;28;20416;-79
2021/10/27 16:40:17;;;;;;;7.55;4.57;;;25.80;43.80;;;;;;5051971;28;20428;-71
2021/10/27 16:42:43;;;;;;;7.53;4.53;;;25.70;43.90;;;;;;5055997;28;20911;-69
2021/10/27 16:45:11;;;;;;;10.52;5.03;;;25.70;44.30;;;;;;5055307;28;20405;-76
2021/10/27 16:47:37;;;;;;;12.70;4.70;;;25.70;44.30;;;;;;5070059;28;20395;-64
2021/10/27 16:50:07;;;;;;;13.57;5.28;;;25.60;44.60;;;;;;5037978;28;20418;-68
2021/10/27 16:52:34;;;;;;;12.40;4.70;;;25.60;44.20;;;;;;5053509;28;20410;-63
2021/10/27 16:55:03;;;;;;;10.68;4.20;;;25.60;44.50;;;;;;5053483;28;20378;-81
2021/10/27 16:57:29;;;;;;;17.52;4.38;;;25.60;44.60;;;;;;5058286;28;20434;-70
2021/10/27 16:59:54;;;;;;;19.23;4.57;;;25.60;45.20;;;;;;5035251;28;20846;-76
2021/10/27 17:02:20;;;;;;;14.10;4.57;;;25.60;44.60;;;;;;5067618;28;20394;-65
2021/10/27 17:04:46;;;;;;;16.40;4.00;;;25.60;44.90;;;;;;5071146;28;20384;-70
2021/10/27 17:07:13;;;;;;;17.93;3.80;;;25.60;45.30;;;;;;5054053;28;20395;-69
2021/10/27 17:09:40;;;;;;;15.27;4.10;;;25.50;46.40;;;;;;5074590;28;20515;-77
2021/10/27 17:12:07;;;;;;;14.23;3.50;;;25.60;47.50;;;;;;5053040;28;20394;-77
2021/10/27 17:14:34;;;;;;;14.82;3.40;;;25.60;47.70;;;;;;5069851;28;20903;-63
2021/10/27 17:17:02;;;;;;;12.60;2.92;;;25.50;47.10;;;;;;5054773;28;20407;-71
2021/10/27 17:19:28;;;;;;;13.38;3.22;;;25.50;46.90;;;;;;5054398;28;20877;-63
2021/10/27 17:21:55;;;;;;;12.10;2.85;;;25.50;47.00;;;;;;5069425;28;20871;-78
2021/10/27 17:24:21;;;;;;;10.32;3.00;;;25.60;47.30;;;;;;5039160;28;20387;-68
2021/10/27 17:26:49;;;;;;;11.48;2.97;;;25.70;46.60;;;;;;5054078;28;20948;-79
2021/10/27 17:29:14;;;;;;;8.70;3.00;;;25.80;46.80;;;;;;5068885;28;20484;-76
2021/10/27 17:31:41;;;;;;;11.23;3.20;;;25.70;45.90;;;;;;5054428;28;20454;-81
2021/10/27 17:34:07;;;;;;;12.60;3.72;;;25.70;45.90;;;;;;5051470;28;20965;-64
2021/10/27 17:36:33;;;;;;;14.93;4.13;;;25.60;46.60;;;;;;5036653;28;20398;-78